Time;durP1;ratioP1;P1;durP2;ratioP2;P2;SDS_P1;SDS_P2;PMS_P1;PMS_P2;Temp;Humidity;BMP_temperature;BMP_pressure;BME280_temperature;BME280_humidity;BME280_pressure;Samples;Min_cycle;Max_cycle;Signal;HPM_P1;HPM_P2
2022/10/28 00:01:39;;;;;;;;;;;19.50;72.00;;;;;;4993209;28;19981;-82
2022/10/28 00:04:04;;;;;;;;;;;19.50;71.80;;;;;;5005295;28;19918;-81
2022/10/28 00:06:32;;;;;;;;;;;19.40;72.30;;;;;;4992435;28;20408;-82
2022/10/28 00:08:58;;;;;;;;;;;19.50;71.40;;;;;;4998435;28;19954;-82
2022/10/28 00:11:24;;;;;;;;;;;19.50;71.70;;;;;;5019560;28;19913;-82
2022/10/28 00:13:51;;;;;;;;;;;19.50;71.20;;;;;;4993002;28;19914;-81
2022/10/28 00:16:18;;;;;;;;;;;19.60;70.90;;;;;;5014892;28;19917;-81
2022/10/28 00:18:44;;;;;;;;;;;19.50;71.20;;;;;;4993289;28;19988;-81
2022/10/28 00:21:11;;;;;;;;;;;19.20;71.80;;;;;;5000475;28;19917;-80
2022/10/28 00:23:37;;;;;;;;;;;19.30;71.70;;;;;;4998544;28;20001;-80
2022/10/28 00:26:13;;;;;;;;;;;19.30;71.50;;;;;;5004350;28;19946;-80
2022/10/28 00:28:40;;;;;;;;;;;19.30;71.10;;;;;;4991686;28;20426;-81
2022/10/28 00:31:06;;;;;;;;;;;19.40;70.70;;;;;;4999776;28;19936;-80
2022/10/28 00:33:32;;;;;;;;;;;19.40;70.90;;;;;;4999845;28;20335;-81
2022/10/28 00:36:07;;;;;;;;;;;19.40;71.00;;;;;;5000094;28;19925;-81
2022/10/28 00:38:33;;;;;;;;;;;19.50;70.30;;;;;;5005428;28;19913;-82
2022/10/28 00:40:58;;;;;;;;;;;19.50;70.50;;;;;;4996945;28;20288;-81
2022/10/28 00:43:53;;;;;;;;;;;19.40;70.10;;;;;;4995328;28;20347;-80
2022/10/28 00:46:24;;;;;;;;;;;19.40;70.00;;;;;;4980156;28;19917;-80
2022/10/28 00:48:53;;;;;;;;;;;19.50;69.90;;;;;;5000161;28;19953;-80
2022/10/28 00:51:19;;;;;;;;;;;19.60;69.60;;;;;;4990988;28;20391;-80
2022/10/28 00:53:47;;;;;;;;;;;19.50;69.50;;;;;;4988560;28;20016;-80
2022/10/28 00:56:13;;;;;;;;;;;19.60;69.10;;;;;;5015435;28;19929;-80
2022/10/28 00:58:40;;;;;;;;;;;19.60;68.70;;;;;;4989729;28;21248;-80
2022/10/28 01:01:06;;;;;;;;;;;19.70;68.60;;;;;;5007809;28;19917;-83
2022/10/28 01:03:31;;;;;;;;;;;19.60;68.70;;;;;;4993767;28;19960;-80
2022/10/28 01:05:57;;;;;;;;;;;19.60;69.30;;;;;;4995638;28;20367;-81
2022/10/28 01:08:22;;;;;;;;;;;19.60;68.90;;;;;;4997746;28;19914;-81
2022/10/28 01:10:47;;;;;;;;;;;19.60;68.30;;;;;;4992702;28;19922;-81
2022/10/28 01:13:16;;;;;;;;;;;19.60;68.60;;;;;;5015302;28;19945;-80
2022/10/28 01:15:54;;;;;;;;;;;19.60;68.10;;;;;;4992705;28;20000;-80
2022/10/28 01:18:22;;;;;;;;;;;19.80;67.70;;;;;;5006694;28;19937;-80
2022/10/28 01:20:48;;;;;;;;;;;19.90;67.20;;;;;;4992857;28;19913;-81
2022/10/28 01:23:30;;;;;;;;;;;19.80;67.20;;;;;;4991176;28;20071;-81
2022/10/28 01:26:02;;;;;;;;;;;19.80;67.30;;;;;;4993664;28;20292;-80
2022/10/28 01:28:27;;;;;;;;;;;19.70;67.40;;;;;;5006677;28;20292;-80
2022/10/28 01:31:05;;;;;;;;;;;19.80;67.20;;;;;;5006247;28;20000;-80
2022/10/28 01:33:33;;;;;;;;;;;19.90;66.70;;;;;;5007619;28;19914;-81
2022/10/28 01:36:12;;;;;;;;;;;19.80;67.00;;;;;;5002889;28;19920;-82
2022/10/28 01:38:52;;;;;;;;;;;19.80;66.70;;;;;;4992105;28;19925;-81
2022/10/28 01:41:28;;;;;;;;;;;19.90;66.30;;;;;;4991704;28;19921;-82
2022/10/28 01:44:20;;;;;;;;;;;19.90;66.30;;;;;;4989503;28;19913;-81
2022/10/28 01:46:50;;;;;;;;;;;20.00;66.10;;;;;;4994309;28;19964;-80
2022/10/28 01:49:19;;;;;;;;;;;20.00;65.70;;;;;;4996247;28;19921;-81
2022/10/28 01:51:46;;;;;;;;;;;20.00;66.00;;;;;;4992620;28;19914;-81
2022/10/28 01:54:14;;;;;;;;;;;20.00;66.00;;;;;;5002111;28;20295;-80
2022/10/28 01:56:40;;;;;;;;;;;20.00;66.20;;;;;;4990786;28;19914;-81
2022/10/28 01:59:08;;;;;;;;;;;19.90;66.20;;;;;;5014359;28;20269;-80
2022/10/28 02:01:34;;;;;;;;;;;19.80;66.60;;;;;;5009624;28;20399;-81
2022/10/28 02:04:00;;;;;;;;;;;19.80;67.20;;;;;;5009499;28;19918;-82
2022/10/28 02:06:28;;;;;;;;;;;19.80;66.40;;;;;;5006321;28;20008;-81
2022/10/28 02:08:53;;;;;;;;;;;19.90;66.00;;;;;;5027157;22;19933;-86
2022/10/28 02:11:22;;;;;;;;;;;19.90;66.00;;;;;;5029504;28;19917;-86
2022/10/28 02:13:47;;;;;;;;;;;19.90;66.30;;;;;;5032272;28;21907;-86
2022/10/28 02:16:33;;;;;;;;;;;19.80;66.30;;;;;;5036413;28;19963;-86
2022/10/28 02:19:13;;;;;;;;;;;19.90;66.20;;;;;;5004651;28;19971;-87
2022/10/28 02:21:47;;;;;;;;;;;19.80;66.80;;;;;;5061288;28;19924;-86
2022/10/28 02:24:20;;;;;;;;;;;19.90;66.40;;;;;;5032564;28;19917;-86
2022/10/28 02:26:52;;;;;;;;;;;19.90;66.00;;;;;;5023469;28;19943;-86
2022/10/28 02:29:25;;;;;;;;;;;19.90;66.10;;;;;;5040640;28;19984;-85
2022/10/28 02:31:54;;;;;;;;;;;19.90;66.00;;;;;;5055751;28;19908;-86
2022/10/28 02:34:22;;;;;;;;;;;20.00;65.30;;;;;;5039202;28;19967;-86
2022/10/28 02:36:50;;;;;;;;;;;20.00;65.60;;;;;;5028088;28;19989;-86
2022/10/28 02:39:17;;;;;;;;;;;20.00;65.40;;;;;;5027387;28;19913;-86
2022/10/28 02:41:47;;;;;;;;;;;20.00;65.80;;;;;;5027922;28;19917;-86
2022/10/28 02:44:15;;;;;;;;;;;19.90;65.90;;;;;;5028499;28;19914;-87
2022/10/28 02:46:43;;;;;;;;;;;20.00;65.80;;;;;;5029185;28;19925;-87
2022/10/28 02:49:13;;;;;;;;;;;20.00;65.70;;;;;;5022288;28;19914;-87
2022/10/28 02:51:47;;;;;;;;;;;20.00;65.70;;;;;;5028935;28;19920;-87
2022/10/28 02:54:16;;;;;;;;;;;20.00;66.00;;;;;;5028092;28;19924;-86
2022/10/28 02:56:47;;;;;;;;;;;19.80;66.30;;;;;;5027744;28;20720;-87
2022/10/28 02:59:12;;;;;;;;;;;19.70;66.80;;;;;;5028302;28;20178;-87
2022/10/28 03:01:38;;;;;;;;;;;19.60;67.40;;;;;;5032099;28;20381;-87
2022/10/28 03:04:04;;;;;;;;;;;19.60;67.20;;;;;;5026413;28;20419;-87
2022/10/28 03:06:29;;;;;;;;;;;19.60;67.10;;;;;;5023623;28;19928;-86
2022/10/28 03:08:55;;;;;;;;;;;19.70;66.50;;;;;;5028877;28;20346;-87
2022/10/28 03:11:20;;;;;;;;;;;19.70;66.80;;;;;;5027911;28;19920;-87
2022/10/28 03:13:46;;;;;;;;;;;19.80;66.70;;;;;;5028970;28;20383;-86
2022/10/28 03:16:11;;;;;;;;;;;19.70;67.10;;;;;;5040519;28;19913;-87
2022/10/28 03:18:37;;;;;;;;;;;19.70;66.90;;;;;;5028301;28;20307;-87
2022/10/28 03:21:02;;;;;;;;;;;19.60;67.10;;;;;;5030579;28;19925;-87
2022/10/28 03:23:28;;;;;;;;;;;19.60;67.50;;;;;;5029311;28;19913;-87
2022/10/28 03:25:53;;;;;;;;;;;19.50;67.30;;;;;;5043878;28;19936;-86
2022/10/28 03:28:19;;;;;;;;;;;19.60;67.20;;;;;;5059864;28;19921;-86
2022/10/28 03:30:44;;;;;;;;;;;19.50;67.50;;;;;;5042277;28;19920;-86
2022/10/28 03:33:10;;;;;;;;;;;19.40;67.80;;;;;;5027115;28;19921;-87
2022/10/28 03:35:35;;;;;;;;;;;19.50;67.60;;;;;;5031875;28;19935;-86
2022/10/28 03:38:01;;;;;;;;;;;19.40;67.80;;;;;;5033384;28;19924;-87
2022/10/28 03:40:26;;;;;;;;;;;19.50;67.60;;;;;;5045583;28;19935;-86
2022/10/28 03:42:52;;;;;;;;;;;19.40;67.80;;;;;;5023205;28;19924;-86
2022/10/28 03:45:17;;;;;;;;;;;19.40;68.00;;;;;;5031262;28;20418;-86
2022/10/28 03:47:43;;;;;;;;;;;19.40;67.70;;;;;;5028809;28;19921;-87
2022/10/28 03:50:08;;;;;;;;;;;19.30;68.30;;;;;;5025235;28;19920;-87
2022/10/28 03:52:34;;;;;;;;;;;19.30;68.50;;;;;;5026047;28;19943;-86
2022/10/28 03:55:02;;;;;;;;;;;19.20;68.80;;;;;;5030040;28;19950;-87
2022/10/28 03:57:31;;;;;;;;;;;19.20;68.60;;;;;;5026549;28;19913;-86
2022/10/28 03:59:57;;;;;;;;;;;19.20;68.60;;;;;;5030496;28;19931;-86
2022/10/28 04:02:23;;;;;;;;;;;19.10;68.90;;;;;;5035559;28;19928;-87
2022/10/28 04:04:48;;;;;;;;;;;19.10;69.00;;;;;;5025910;28;19976;-87
2022/10/28 04:07:14;;;;;;;;;;;19.10;69.20;;;;;;5033477;28;19917;-87
2022/10/28 04:09:39;;;;;;;;;;;19.10;69.10;;;;;;5029741;28;19924;-86
2022/10/28 04:12:05;;;;;;;;;;;19.10;69.00;;;;;;5034916;28;19949;-86
2022/10/28 04:14:36;;;;;;;;;;;19.10;68.90;;;;;;5033144;28;19921;-85
2022/10/28 04:17:01;;;;;;;;;;;19.10;69.40;;;;;;5025165;28;19913;-89
2022/10/28 04:19:27;;;;;;;;;;;19.00;70.00;;;;;;5026416;28;19944;-87
2022/10/28 04:21:52;;;;;;;;;;;18.90;70.10;;;;;;5026298;28;19917;-89
2022/10/28 04:24:21;;;;;;;;;;;19.00;69.90;;;;;;5041453;28;19913;-89
2022/10/28 04:26:46;;;;;;;;;;;19.00;69.80;;;;;;5042132;28;19917;-88
2022/10/28 04:29:12;;;;;;;;;;;18.90;69.90;;;;;;5034383;28;20290;-88
2022/10/28 04:31:37;;;;;;;;;;;18.90;69.90;;;;;;5029774;28;19917;-88
2022/10/28 04:34:03;;;;;;;;;;;18.90;70.00;;;;;;5034292;28;19921;-87
2022/10/28 04:36:28;;;;;;;;;;;18.90;70.20;;;;;;5034067;28;19913;-87
2022/10/28 04:38:54;;;;;;;;;;;18.80;70.70;;;;;;5033036;28;20000;-87
2022/10/28 04:41:19;;;;;;;;;;;18.70;71.10;;;;;;5031428;28;20268;-86
2022/10/28 04:43:54;;;;;;;;;;;18.60;71.10;;;;;;5033644;28;19913;-88
2022/10/28 04:46:20;;;;;;;;;;;18.60;71.40;;;;;;5033596;28;20012;-86
2022/10/28 04:48:46;;;;;;;;;;;18.60;71.20;;;;;;5025456;28;21480;-90
2022/10/28 04:51:19;;;;;;;;;;;18.60;71.40;;;;;;5023190;28;19913;-88
2022/10/28 04:54:13;;;;;;;;;;;;;;;;;;;;;
2022/10/28 04:56:44;;;;;;;;;;;18.60;71.40;;;;;;5027364;28;20315;-88
2022/10/28 04:59:09;;;;;;;;;;;18.50;71.90;;;;;;5039301;28;19920;-87
2022/10/28 05:01:37;;;;;;;;;;;18.50;72.00;;;;;;5030667;28;20375;-87
2022/10/28 05:04:03;;;;;;;;;;;18.50;71.60;;;;;;5032259;28;19921;-89
2022/10/28 05:06:54;;;;;;;;;;;;;;;;;;;;;
2022/10/28 05:09:54;;;;;;;;;;;18.40;72.30;;;;;;5027458;28;20024;-90
2022/10/28 05:12:50;;;;;;;;;;;18.50;71.90;;;;;;5036506;28;20140;-90
2022/10/28 05:15:50;;;;;;;;;;;18.50;71.70;;;;;;5038143;28;19924;-91
2022/10/28 05:18:30;;;;;;;;;;;18.50;72.10;;;;;;5041828;28;19936;-90
2022/10/28 05:24:35;;;;;;;;;;;18.40;72.00;;;;;;5009344;28;19933;-90
2022/10/28 05:27:12;;;;;;;;;;;18.60;71.20;;;;;;5032017;28;19917;-92
2022/10/28 05:32:43;;;;;;;;;;;18.60;71.20;;;;;;5048527;28;19936;-82
2022/10/28 05:35:44;;;;;;;;;;;18.70;70.90;;;;;;5038843;28;19937;-86
2022/10/28 05:38:09;;;;;;;;;;;18.80;71.10;;;;;;5006643;28;20447;-87
2022/10/28 05:40:35;;;;;;;;;;;18.80;70.70;;;;;;5029069;28;20035;-86
2022/10/28 05:43:00;;;;;;;;;;;18.70;70.80;;;;;;5031586;28;19966;-85
2022/10/28 05:45:26;;;;;;;;;;;18.70;70.90;;;;;;5046396;28;19936;-85
2022/10/28 05:47:51;;;;;;;;;;;18.70;70.90;;;;;;5054393;28;20457;-87
2022/10/28 05:50:20;;;;;;;;;;;18.80;70.80;;;;;;5036854;28;19951;-86
2022/10/28 05:52:53;;;;;;;;;;;18.70;70.80;;;;;;5034573;28;19909;-86
2022/10/28 05:55:19;;;;;;;;;;;18.60;71.00;;;;;;5027281;28;19920;-87
2022/10/28 05:57:49;;;;;;;;;;;18.70;71.40;;;;;;5035259;28;19909;-86
2022/10/28 06:00:15;;;;;;;;;;;18.70;71.10;;;;;;5027610;28;20001;-85
2022/10/28 06:02:48;;;;;;;;;;;18.60;71.20;;;;;;5033422;28;19916;-87
2022/10/28 06:05:43;;;;;;;;;;;18.60;71.50;;;;;;5029360;28;20363;-87
2022/10/28 06:08:13;;;;;;;;;;;18.60;71.50;;;;;;5030489;28;19960;-87
2022/10/28 06:11:00;;;;;;;;;;;18.60;71.60;;;;;;5023493;28;19936;-87
2022/10/28 06:13:26;;;;;;;;;;;18.70;70.90;;;;;;5027214;28;19964;-86
2022/10/28 06:15:55;;;;;;;;;;;18.70;71.40;;;;;;5031191;28;19979;-87
2022/10/28 06:18:25;;;;;;;;;;;18.70;71.40;;;;;;5025081;28;19935;-86
2022/10/28 06:20:51;;;;;;;;;;;18.80;71.30;;;;;;5027577;28;19916;-83
2022/10/28 06:23:17;;;;;;;;;;;18.70;71.50;;;;;;5029627;28;20008;-83
2022/10/28 06:25:42;;;;;;;;;;;18.70;71.20;;;;;;5036971;28;19987;-84
2022/10/28 06:28:08;;;;;;;;;;;18.70;71.40;;;;;;5040614;28;19932;-83
2022/10/28 06:30:37;;;;;;;;;;;18.60;71.60;;;;;;5029486;28;19914;-87
2022/10/28 06:33:02;;;;;;;;;;;18.60;71.70;;;;;;5014056;28;19963;-85
2022/10/28 06:35:28;;;;;;;;;;;18.60;71.60;;;;;;5033217;28;19913;-87
2022/10/28 06:37:54;;;;;;;;;;;18.70;71.50;;;;;;5055168;28;19913;-87
2022/10/28 06:40:20;;;;;;;;;;;18.70;71.40;;;;;;5031759;28;19913;-90
2022/10/28 06:42:46;;;;;;;;;;;18.70;72.00;;;;;;5029544;28;20295;-88
2022/10/28 06:45:11;;;;;;;;;;;18.80;71.50;;;;;;5025781;28;20379;-88
2022/10/28 06:47:44;;;;;;;;;;;18.80;71.40;;;;;;5027033;28;19917;-89
2022/10/28 06:53:22;;;;;;;;;;;;;;;;;;;;;
2022/10/28 07:05:32;;;;;;;;;;;18.80;71.40;;;;;;5006982;28;19914;-88
2022/10/28 07:08:13;;;;;;;;;;;18.80;71.60;;;;;;5043665;28;19920;-86
2022/10/28 07:11:10;;;;;;;;;;;18.80;71.50;;;;;;5027580;28;19913;-87
2022/10/28 07:13:36;;;;;;;;;;;18.80;71.40;;;;;;5027349;28;19921;-88
2022/10/28 07:16:07;;;;;;;;;;;18.80;71.60;;;;;;5022428;28;19921;-89
2022/10/28 07:18:35;;;;;;;;;;;18.70;71.80;;;;;;5029075;28;19963;-88
2022/10/28 07:21:45;;;;;;;;;;;;;;;;;;;;;
2022/10/28 07:24:40;;;;;;;;;;;18.70;71.80;;;;;;5027795;28;20012;-89
2022/10/28 07:27:09;;;;;;;;;;;18.80;71.70;;;;;;5028357;28;19913;-90
2022/10/28 07:29:53;;;;;;;;;;;18.70;72.30;;;;;;5030624;28;19917;-91
2022/10/28 07:32:41;;;;;;;;;;;18.80;71.90;;;;;;5035875;28;19921;-89
2022/10/28 07:35:10;;;;;;;;;;;18.80;71.90;;;;;;5013279;28;19976;-88
2022/10/28 07:37:41;;;;;;;;;;;18.80;72.50;;;;;;5031271;28;19909;-86
2022/10/28 07:40:26;;;;;;;;;;;18.70;72.60;;;;;;5037199;28;19944;-92
2022/10/28 07:42:56;;;;;;;;;;;18.90;72.10;;;;;;5023445;28;19957;-86
2022/10/28 07:45:28;;;;;;;;;;;19.10;71.70;;;;;;5031677;28;19913;-87
2022/10/28 07:47:57;;;;;;;;;;;19.20;71.10;;;;;;5033929;28;19924;-87
2022/10/28 07:50:22;;;;;;;;;;;19.30;71.10;;;;;;5031132;28;19916;-86
2022/10/28 07:53:17;;;;;;;;;;;19.30;70.90;;;;;;5031450;28;19956;-89
2022/10/28 07:55:52;;;;;;;;;;;19.40;70.70;;;;;;5025674;28;19958;-87
2022/10/28 07:58:18;;;;;;;;;;;19.50;70.40;;;;;;5010636;28;19913;-87
2022/10/28 08:00:44;;;;;;;;;;;19.60;70.00;;;;;;5012996;28;20151;-87
2022/10/28 08:03:12;;;;;;;;;;;19.60;70.20;;;;;;5040345;28;19893;-86
2022/10/28 08:05:37;;;;;;;;;;;19.60;70.80;;;;;;5056856;28;19988;-86
2022/10/28 08:08:21;;;;;;;;;;;19.60;71.00;;;;;;5032227;28;20390;-87
2022/10/28 08:10:46;;;;;;;;;;;19.60;70.40;;;;;;5029017;23;19972;-81
2022/10/28 08:13:12;;;;;;;;;;;19.60;70.40;;;;;;5014389;28;19909;-81
2022/10/28 08:15:37;;;;;;;;;;;19.60;70.00;;;;;;5010542;28;19917;-80
2022/10/28 08:18:03;;;;;;;;;;;19.70;70.10;;;;;;5015542;28;19910;-81
2022/10/28 08:20:28;;;;;;;;;;;19.70;69.70;;;;;;5010291;28;19917;-82
2022/10/28 08:22:54;;;;;;;;;;;19.70;69.80;;;;;;5014756;28;19910;-81
2022/10/28 08:25:19;;;;;;;;;;;19.70;69.60;;;;;;5011491;28;19928;-80
2022/10/28 08:27:45;;;;;;;;;;;19.60;70.20;;;;;;5014773;28;20355;-82
2022/10/28 08:30:10;;;;;;;;;;;19.70;69.80;;;;;;5007141;28;19982;-81
2022/10/28 08:32:36;;;;;;;;;;;19.70;70.00;;;;;;5008354;28;19971;-80
2022/10/28 08:35:01;;;;;;;;;;;19.80;69.80;;;;;;5005999;28;19955;-81
2022/10/28 08:37:27;;;;;;;;;;;19.90;69.40;;;;;;5005658;28;19917;-78
2022/10/28 08:39:52;;;;;;;;;;;19.80;69.70;;;;;;5019687;28;19952;-82
2022/10/28 08:42:33;;;;;;;;;;;19.90;69.00;;;;;;5007297;28;20450;-81
2022/10/28 08:45:01;;;;;;;;;;;19.80;69.40;;;;;;5009867;28;19917;-80
2022/10/28 08:47:27;;;;;;;;;;;19.80;69.30;;;;;;5011278;28;19925;-81
2022/10/28 08:49:59;;;;;;;;;;;19.80;69.60;;;;;;5028269;28;19921;-82
2022/10/28 08:52:34;;;;;;;;;;;19.70;70.30;;;;;;5010601;28;19949;-81
2022/10/28 08:55:15;;;;;;;;;;;19.70;69.90;;;;;;5008860;28;20008;-82
2022/10/28 08:57:49;;;;;;;;;;;19.90;69.40;;;;;;5010139;28;20012;-83
2022/10/28 09:00:20;;;;;;;;;;;20.00;69.20;;;;;;5011611;28;19940;-82
2022/10/28 09:02:51;;;;;;;;;;;19.80;69.60;;;;;;5008744;28;19913;-83
2022/10/28 09:05:20;;;;;;;;;;;19.80;69.30;;;;;;5014334;28;19914;-82
2022/10/28 09:07:46;;;;;;;;;;;19.90;69.10;;;;;;5019324;28;19928;-86
2022/10/28 09:10:15;;;;;;;;;;;20.20;68.40;;;;;;5015421;28;20379;-83
2022/10/28 09:12:44;;;;;;;;;;;20.20;68.40;;;;;;5011222;28;19918;-83
2022/10/28 09:15:23;;;;;;;;;;;20.20;68.70;;;;;;5012483;28;19917;-82
2022/10/28 09:17:49;;;;;;;;;;;20.20;68.60;;;;;;5005096;28;20372;-81
2022/10/28 09:20:17;;;;;;;;;;;20.30;68.20;;;;;;5021910;28;19972;-80
2022/10/28 09:22:56;;;;;;;;;;;20.30;68.10;;;;;;5013235;28;19914;-81
2022/10/28 09:25:41;;;;;;;;;;;20.50;67.50;;;;;;5014809;28;20004;-81
2022/10/28 09:28:29;;;;;;;;;;;20.50;67.40;;;;;;5014917;28;19945;-81
2022/10/28 09:31:13;;;;;;;;;;;20.60;67.10;;;;;;5009088;28;19921;-81
2022/10/28 09:33:43;;;;;;;;;;;20.60;67.10;;;;;;5012642;28;19964;-81
2022/10/28 09:36:12;;;;;;;;;;;20.60;67.20;;;;;;5012806;28;19921;-81
2022/10/28 09:38:38;;;;;;;;;;;20.70;67.30;;;;;;5013402;28;20446;-81
2022/10/28 09:41:07;;;;;;;;;;;20.70;67.00;;;;;;5011437;28;19917;-81
2022/10/28 09:43:36;;;;;;;;;;;20.80;67.30;;;;;;5010603;28;19917;-80
2022/10/28 09:46:09;;;;;;;;;;;20.80;67.50;;;;;;5010293;28;20333;-81
2022/10/28 09:48:36;;;;;;;;;;;20.80;66.90;;;;;;5004353;28;19921;-79
2022/10/28 09:51:02;;;;;;;;;;;21.00;66.80;;;;;;5016287;28;19912;-81
2022/10/28 09:53:43;;;;;;;;;;;21.10;66.70;;;;;;5032712;28;19905;-84
2022/10/28 09:56:09;;;;;;;;;;;21.10;66.30;;;;;;5027026;28;19924;-79
2022/10/28 09:58:35;;;;;;;;;;;21.10;66.10;;;;;;5014505;28;19929;-80
2022/10/28 10:01:02;;;;;;;;;;;21.20;66.40;;;;;;5024058;28;19963;-79
2022/10/28 10:03:27;;;;;;;;;;;21.30;66.40;;;;;;5015919;28;19945;-79
2022/10/28 10:05:54;;;;;;;;;;;21.30;66.30;;;;;;5023149;28;19921;-78
2022/10/28 10:08:21;;;;;;;;;;;21.40;64.90;;;;;;5011919;28;20299;-80
2022/10/28 10:10:55;;;;;;;;;;;21.60;64.30;;;;;;5012363;28;19918;-79
2022/10/28 10:13:25;;;;;;;;;;;21.70;63.20;;;;;;5010731;28;19913;-80
2022/10/28 10:16:14;;;;;;;;;;;21.80;63.10;;;;;;5009657;28;19956;-80
2022/10/28 10:18:45;;;;;;;;;;;21.80;63.10;;;;;;5003730;28;19921;-81
2022/10/28 10:21:11;;;;;;;;;;;21.80;63.10;;;;;;5005851;28;20000;-80
2022/10/28 10:23:37;;;;;;;;;;;21.80;63.30;;;;;;4995639;28;20403;-79
2022/10/28 10:26:08;;;;;;;;;;;21.90;63.10;;;;;;5010652;28;19927;-79
2022/10/28 10:28:44;;;;;;;;;;;21.90;63.10;;;;;;5020378;28;19972;-80
2022/10/28 10:31:19;;;;;;;;;;;21.90;63.20;;;;;;5009051;28;20292;-79
2022/10/28 10:33:48;;;;;;;;;;;22.00;62.80;;;;;;5010245;28;19965;-79
2022/10/28 10:36:15;;;;;;;;;;;22.10;62.60;;;;;;5009892;28;19971;-80
2022/10/28 10:38:58;;;;;;;;;;;22.10;62.10;;;;;;5003910;28;19920;-81
2022/10/28 10:41:34;;;;;;;;;;;22.10;62.80;;;;;;4990274;28;19918;-81
2022/10/28 10:44:00;;;;;;;;;;;22.30;62.10;;;;;;5007952;28;19925;-78
2022/10/28 10:46:26;;;;;;;;;;;22.50;61.50;;;;;;5010835;28;19917;-78
2022/10/28 10:49:05;;;;;;;;;;;22.40;61.70;;;;;;5014735;28;19917;-79
2022/10/28 10:51:31;;;;;;;;;;;22.40;61.90;;;;;;5013522;28;19921;-78
2022/10/28 10:54:00;;;;;;;;;;;22.40;62.00;;;;;;5013008;28;19929;-82
2022/10/28 10:56:30;;;;;;;;;;;22.50;60.30;;;;;;5012874;28;19940;-83
2022/10/28 10:58:57;;;;;;;;;;;22.60;60.00;;;;;;5009692;28;21547;-81
2022/10/28 11:01:25;;;;;;;;;;;22.60;60.20;;;;;;5015118;28;19918;-84
2022/10/28 11:03:57;;;;;;;;;;;22.60;60.20;;;;;;5013382;28;19913;-85
2022/10/28 11:06:28;;;;;;;;;;;22.60;60.40;;;;;;5006241;28;19917;-83
2022/10/28 11:08:55;;;;;;;;;;;22.50;60.30;;;;;;5010739;28;19924;-83
2022/10/28 11:11:23;;;;;;;;;;;22.50;61.20;;;;;;5011359;28;19918;-82
2022/10/28 11:14:00;;;;;;;;;;;22.50;60.60;;;;;;5012768;28;20646;-82
2022/10/28 11:16:26;;;;;;;;;;;22.50;61.10;;;;;;5029810;28;19997;-82
2022/10/28 11:18:52;;;;;;;;;;;22.60;60.80;;;;;;5011365;28;20051;-83
2022/10/28 11:21:41;;;;;;;;;;;22.60;60.90;;;;;;5012296;28;19917;-81
2022/10/28 11:24:15;;;;;;;;;;;22.80;61.40;;;;;;5016770;28;19924;-83
2022/10/28 11:26:49;;;;;;;;;;;22.70;60.90;;;;;;5005094;28;19922;-83
2022/10/28 11:29:15;;;;;;;;;;;22.70;61.50;;;;;;5014370;28;21357;-79
2022/10/28 11:31:44;;;;;;;;;;;22.70;61.40;;;;;;5010725;28;20371;-81
2022/10/28 11:34:13;;;;;;;;;;;22.70;61.10;;;;;;5011147;28;19917;-79
2022/10/28 11:36:51;;;;;;;;;;;22.80;60.90;;;;;;5021208;28;19917;-82
2022/10/28 11:39:24;;;;;;;;;;;22.80;61.30;;;;;;5012596;28;19913;-81
2022/10/28 11:41:53;;;;;;;;;;;22.90;60.80;;;;;;5016700;28;19917;-81
2022/10/28 11:44:24;;;;;;;;;;;23.10;60.00;;;;;;5014412;28;19940;-80
2022/10/28 11:47:05;;;;;;;;;;;23.10;60.00;;;;;;5013359;28;20012;-82
2022/10/28 11:49:42;;;;;;;;;;;23.10;59.30;;;;;;5019681;28;19914;-81
2022/10/28 11:52:33;;;;;;;;;;;23.20;58.90;;;;;;5009207;28;20355;-81
2022/10/28 11:55:17;;;;;;;;;;;23.20;57.80;;;;;;5012420;28;19968;-81
2022/10/28 11:57:55;;;;;;;;;;;23.30;57.60;;;;;;5001021;28;19913;-80
2022/10/28 12:00:36;;;;;;;;;;;23.40;57.70;;;;;;5006767;28;19927;-81
2022/10/28 12:03:01;;;;;;;;;;;23.50;57.20;;;;;;5007406;28;19913;-79
2022/10/28 12:05:31;;;;;;;;;;;23.40;58.00;;;;;;5010233;28;19917;-80
2022/10/28 12:08:14;;;;;;;;;;;23.50;56.90;;;;;;5027605;28;20324;-81
2022/10/28 12:10:58;;;;;;;;;;;23.60;55.90;;;;;;5009987;28;19960;-80
2022/10/28 12:13:29;;;;;;;;;;;23.80;56.50;;;;;;5014630;28;19914;-80
2022/10/28 12:16:01;;;;;;;;;;;23.60;56.80;;;;;;5011565;28;19957;-80
2022/10/28 12:18:30;;;;;;;;;;;23.60;56.60;;;;;;5014220;28;19921;-80
2022/10/28 12:21:21;;;;;;;;;;;23.70;56.20;;;;;;5004928;28;20291;-79
2022/10/28 12:23:47;;;;;;;;;;;23.60;56.90;;;;;;4969898;28;19940;-78
2022/10/28 12:26:15;;;;;;;;;;;23.60;57.10;;;;;;5012705;28;19918;-78
2022/10/28 12:28:45;;;;;;;;;;;23.70;55.90;;;;;;4998381;28;20329;-78
2022/10/28 12:31:19;;;;;;;;;;;23.90;55.70;;;;;;5000327;28;20044;-77
2022/10/28 12:33:46;;;;;;;;;;;24.00;54.50;;;;;;5004098;28;19920;-78
2022/10/28 12:36:18;;;;;;;;;;;24.00;54.50;;;;;;5006949;28;19971;-83
2022/10/28 12:39:00;;;;;;;;;;;24.00;55.40;;;;;;4994632;28;19920;-77
2022/10/28 12:41:41;;;;;;;;;;;24.00;55.10;;;;;;5001210;28;19917;-77
2022/10/28 12:44:10;;;;;;;;;;;24.00;55.20;;;;;;4999826;28;19932;-76
2022/10/28 12:46:47;;;;;;;;;;;24.00;55.20;;;;;;5000198;28;20051;-77
2022/10/28 12:49:20;;;;;;;;;;;23.90;55.40;;;;;;4992083;28;19921;-76
2022/10/28 12:51:45;;;;;;;;;;;24.00;54.40;;;;;;4997759;28;20024;-77
2022/10/28 12:54:17;;;;;;;;;;;24.10;54.30;;;;;;5005458;28;20000;-77
2022/10/28 12:56:51;;;;;;;;;;;24.10;54.00;;;;;;5004252;28;20546;-75
2022/10/28 12:59:35;;;;;;;;;;;24.10;54.30;;;;;;5006491;28;19971;-75
2022/10/28 13:02:01;;;;;;;;;;;24.00;55.40;;;;;;5002845;28;19964;-75
2022/10/28 13:04:27;;;;;;;;;;;24.10;54.80;;;;;;5007969;28;19917;-76
2022/10/28 13:06:56;;;;;;;;;;;24.00;54.50;;;;;;5007557;28;19940;-77
2022/10/28 13:09:33;;;;;;;;;;;24.00;54.90;;;;;;5009202;28;19913;-76
2022/10/28 13:12:05;;;;;;;;;;;24.00;55.40;;;;;;5015048;28;19922;-75
2022/10/28 13:14:39;;;;;;;;;;;24.00;55.80;;;;;;5001579;28;19947;-75
2022/10/28 13:17:25;;;;;;;;;;;24.00;55.60;;;;;;5002622;28;19914;-76
2022/10/28 13:19:57;;;;;;;;;;;23.90;55.10;;;;;;5016842;28;19917;-77
2022/10/28 13:22:34;;;;;;;;;;;23.90;55.20;;;;;;4957646;28;20016;-75
2022/10/28 13:25:00;;;;;;;;;;;23.90;54.90;;;;;;4962379;28;19972;-75
2022/10/28 13:27:25;;;;;;;;;;;23.90;55.50;;;;;;4964698;28;19949;-74
2022/10/28 13:29:53;;;;;;;;;;;23.80;55.90;;;;;;4959390;28;20698;-74
2022/10/28 13:32:30;;;;;;;;;;;23.80;55.80;;;;;;4965838;28;20239;-81
2022/10/28 13:35:10;;;;;;;;;;;24.00;54.40;;;;;;5000579;28;19920;-85
2022/10/28 13:45:32;;;;;;;;;;;23.90;54.80;;;;;;4936543;23;19958;-85
2022/10/28 13:48:16;;;;;;;;;;;23.80;55.60;;;;;;4967704;28;19918;-85
2022/10/28 13:50:41;;;;;;;;;;;23.70;55.30;;;;;;4964706;28;20394;-85
2022/10/28 13:53:25;;;;;;;;;;;23.80;54.80;;;;;;4971196;28;19918;-84
2022/10/28 13:55:55;;;;;;;;;;;23.80;55.00;;;;;;4967722;28;19973;-85
2022/10/28 13:58:22;;;;;;;;;;;23.80;55.20;;;;;;4789433;23;20322;-79
2022/10/28 14:00:47;;;;;;;;;;;23.80;55.20;;;;;;4940795;29;19915;-81
2022/10/28 14:03:22;;;;;;;;;;;23.80;55.10;;;;;;4931725;29;19918;-81
2022/10/28 14:05:50;;;;;;;;;;;23.80;55.40;;;;;;4934018;29;20379;-82
2022/10/28 14:08:26;;;;;;;;;;;23.80;55.30;;;;;;4941060;28;19921;-81
2022/10/28 14:10:59;;;;;;;;;;;23.80;55.40;;;;;;4927785;29;19922;-80
2022/10/28 14:13:25;;;;;;;;;;;23.70;55.80;;;;;;4926028;29;20387;-82
2022/10/28 14:16:08;;;;;;;;;;;23.60;56.30;;;;;;4930888;29;20339;-81
2022/10/28 14:18:34;;;;;;;;;;;23.60;56.10;;;;;;4926571;29;19923;-80
2022/10/28 14:21:00;;;;;;;;;;;23.60;55.80;;;;;;4926011;29;19978;-81
2022/10/28 14:23:25;;;;;;;;;;;23.60;55.90;;;;;;4930687;29;20021;-83
2022/10/28 14:25:53;;;;;;;;;;;23.60;55.80;;;;;;4929420;29;20009;-85
2022/10/28 14:28:31;;;;;;;;;;;23.60;55.60;;;;;;4924330;29;20013;-79
2022/10/28 14:31:11;;;;;;;;;;;23.50;56.20;;;;;;4929121;29;19938;-82
2022/10/28 14:33:39;;;;;;;;;;;23.40;56.60;;;;;;4930000;29;19973;-85
2022/10/28 14:36:17;;;;;;;;;;;23.30;56.80;;;;;;4932469;29;20573;-84
2022/10/28 14:38:52;;;;;;;;;;;23.30;57.00;;;;;;4931106;29;20973;-86
2022/10/28 14:41:18;;;;;;;;;;;23.30;56.90;;;;;;4928397;29;19915;-80
2022/10/28 14:44:02;;;;;;;;;;;23.30;56.70;;;;;;4933525;28;20078;-80
2022/10/28 14:46:32;;;;;;;;;;;23.40;56.90;;;;;;4938930;29;19922;-79
2022/10/28 14:48:59;;;;;;;;;;;23.30;57.30;;;;;;4950193;29;19990;-79
2022/10/28 14:51:26;;;;;;;;;;;23.30;57.50;;;;;;4949966;29;19982;-79
2022/10/28 14:53:55;;;;;;;;;;;23.20;57.20;;;;;;4962571;28;19914;-79
2022/10/28 14:56:22;;;;;;;;;;;23.20;57.70;;;;;;4962694;28;19926;-79
2022/10/28 14:58:48;;;;;;;;;;;23.00;57.90;;;;;;4943206;29;19918;-79
2022/10/28 15:01:17;;;;;;;;;;;23.00;58.40;;;;;;4937058;29;19915;-79
2022/10/28 15:03:44;;;;;;;;;;;23.00;58.70;;;;;;4945282;29;19915;-79
2022/10/28 15:06:28;;;;;;;;;;;23.00;58.70;;;;;;4943922;29;20379;-78
2022/10/28 15:08:55;;;;;;;;;;;22.90;59.20;;;;;;4955785;28;20389;-80
2022/10/28 15:11:21;;;;;;;;;;;22.80;59.60;;;;;;4942984;29;19915;-78